createdAt,value
2019-05-01T00:00:35.335Z,2.80
2019-05-01T00:03:29.439Z,2.43
2019-05-01T00:06:07.483Z,2.20
2019-05-01T00:08:45.805Z,2.27
2019-05-01T00:11:20.805Z,1.90
2019-05-01T00:13:54.779Z,1.60
2019-05-01T00:16:34.664Z,2.60
2019-05-01T00:19:10.282Z,2.30
2019-05-01T00:21:44.703Z,1.90
2019-05-01T00:24:19.099Z,1.80
2019-05-01T00:26:53.442Z,1.93
2019-05-01T00:29:29.494Z,1.43
2019-05-01T00:32:04.573Z,1.40
2019-05-01T00:34:41.198Z,4.70
2019-05-01T00:37:15.513Z,4.10
2019-05-01T00:39:48.809Z,3.50
2019-05-01T00:42:23.140Z,2.60
2019-05-01T00:44:56.818Z,3.00
2019-05-01T00:47:31.868Z,2.20
2019-05-01T00:50:08.663Z,2.50
2019-05-01T00:52:44.561Z,2.50
2019-05-01T00:55:38.389Z,1.73
2019-05-01T00:58:27.143Z,2.07
2019-05-01T01:01:21.821Z,2.20
2019-05-01T01:03:56.002Z,1.90
2019-05-01T01:06:30.164Z,3.13
2019-05-01T01:09:05.505Z,2.40
2019-05-01T01:11:40.893Z,1.87
2019-05-01T01:14:16.407Z,1.93
2019-05-01T01:16:50.283Z,1.57
2019-05-01T01:19:24.791Z,2.40
2019-05-01T01:22:01.509Z,2.33
2019-05-01T01:24:36.385Z,2.47
2019-05-01T01:27:10.085Z,2.33
2019-05-01T01:29:43.286Z,2.17
2019-05-01T01:32:17.027Z,2.00
2019-05-01T01:34:51.077Z,1.63
2019-05-01T01:37:28.190Z,3.23
2019-05-01T01:40:03.837Z,2.07
2019-05-01T01:42:38.611Z,2.17
2019-05-01T01:45:23.800Z,1.50
2019-05-01T01:48:13.329Z,1.53
2019-05-01T01:50:48.491Z,1.50
2019-05-01T01:53:26.067Z,1.37
2019-05-01T01:56:00.531Z,1.57
2019-05-01T01:58:35.631Z,2.23
2019-05-01T02:01:29.323Z,1.23
2019-05-01T02:04:10.785Z,1.80
2019-05-01T02:06:44.950Z,1.30
2019-05-01T02:09:22.067Z,2.00
2019-05-01T02:11:56.322Z,2.10
2019-05-01T02:14:29.998Z,2.13
2019-05-01T02:17:04.833Z,3.40
2019-05-01T02:19:41.315Z,1.50
2019-05-01T02:22:15.503Z,1.90
2019-05-01T02:24:49.473Z,2.10
2019-05-01T02:27:37.937Z,2.13
2019-05-01T02:30:15.205Z,3.87
2019-05-01T02:32:48.703Z,2.73
2019-05-01T02:35:23.302Z,2.60
2019-05-01T02:37:58.567Z,2.10
2019-05-01T02:40:51.474Z,2.30
2019-05-01T02:43:28.420Z,1.83
2019-05-01T02:46:05.956Z,1.87
2019-05-01T02:48:44.655Z,1.77
2019-05-01T02:51:20.083Z,4.83
2019-05-01T02:53:55.522Z,2.67
2019-05-01T02:56:46.148Z,2.00
2019-05-01T02:59:22.475Z,4.30
2019-05-01T03:01:56.547Z,4.07
2019-05-01T03:04:30.994Z,3.30
2019-05-01T03:07:06.270Z,5.20
2019-05-01T03:09:40.911Z,2.80
2019-05-01T03:12:16.724Z,2.17
2019-05-01T03:14:53.279Z,3.00
2019-05-01T03:17:52.465Z,2.03
2019-05-01T03:20:48.335Z,1.53
2019-05-01T03:23:34.757Z,1.70
2019-05-01T03:26:09.138Z,1.50
2019-05-01T03:28:42.267Z,1.83
2019-05-01T03:31:17.223Z,4.13
2019-05-01T03:33:50.460Z,2.93
2019-05-01T03:36:24.856Z,1.97
2019-05-01T03:38:58.944Z,1.90
2019-05-01T03:41:41.701Z,1.90
2019-05-01T03:44:16.485Z,2.10
2019-05-01T03:46:51.672Z,2.27
2019-05-01T03:49:24.979Z,2.37
2019-05-01T03:51:59.903Z,1.33
2019-05-01T03:54:35.693Z,1.33
2019-05-01T03:57:12.634Z,1.80
2019-05-01T03:59:45.268Z,2.20
2019-05-01T04:05:21.403Z,2.73
2019-05-01T04:07:56.111Z,5.20
2019-05-01T04:10:31.121Z,3.60
2019-05-01T04:13:06.199Z,3.23
2019-05-01T04:15:39.443Z,6.37
2019-05-01T04:18:13.024Z,2.60
2019-05-01T04:20:47.087Z,4.10
2019-05-01T04:23:25.683Z,4.23
2019-05-01T04:25:59.933Z,2.97
2019-05-01T04:28:54.464Z,3.97
2019-05-01T04:31:43.038Z,3.70
2019-05-01T04:34:39.228Z,4.90
2019-05-01T04:37:15.595Z,5.63
2019-05-01T04:39:50.015Z,5.40
2019-05-01T04:42:23.743Z,5.83
2019-05-01T04:44:57.854Z,5.03
2019-05-01T04:47:32.265Z,5.57
2019-05-01T04:50:05.999Z,5.37
2019-05-01T04:52:44.009Z,8.30
2019-05-01T04:55:23.643Z,4.60
2019-05-01T04:57:56.646Z,4.30
2019-05-01T05:00:32.105Z,3.20
2019-05-01T05:03:10.346Z,3.27
2019-05-01T05:05:44.185Z,3.90
2019-05-01T05:08:17.799Z,3.40
2019-05-01T05:10:52.952Z,2.80
2019-05-01T05:13:47.075Z,9.00
2019-05-01T05:16:41.900Z,4.10
2019-05-01T05:19:15.794Z,3.00
2019-05-01T05:21:59.703Z,9.47
2019-05-01T05:24:37.731Z,3.00
2019-05-01T05:27:13.718Z,3.37
2019-05-01T05:29:48.284Z,2.70
2019-05-01T05:32:23.854Z,2.60
2019-05-01T05:35:00.640Z,2.90
2019-05-01T05:37:43.119Z,3.60
2019-05-01T05:40:19.477Z,3.63
2019-05-01T05:42:55.588Z,3.70
2019-05-01T05:45:31.750Z,7.13
2019-05-01T05:48:06.621Z,3.67
2019-05-01T05:50:59.446Z,2.50
2019-05-01T05:53:39.952Z,3.63
2019-05-01T05:56:21.138Z,2.63
2019-05-01T05:59:01.988Z,3.50
2019-05-01T06:01:54.364Z,2.87
2019-05-01T06:04:46.645Z,2.40
2019-05-01T06:07:50.315Z,2.80
2019-05-01T06:10:58.575Z,3.07
2019-05-01T06:13:56.968Z,2.90
2019-05-01T06:16:51.490Z,2.60
2019-05-01T06:19:35.238Z,3.73
2019-05-01T06:22:26.379Z,3.80
2019-05-01T06:25:22.829Z,3.93
2019-05-01T06:27:57.607Z,3.20
2019-05-01T06:30:41.938Z,3.67
2019-05-01T06:33:17.436Z,2.40
2019-05-01T06:35:52.573Z,3.70
2019-05-01T06:38:31.491Z,2.77
2019-05-01T06:41:05.019Z,3.60
2019-05-01T06:43:50.921Z,5.47
2019-05-01T06:47:02.925Z,3.23
2019-05-01T06:50:06.068Z,5.30
2019-05-01T06:52:44.045Z,4.17
2019-05-01T06:55:22.534Z,3.97
2019-05-01T06:57:57.402Z,3.90
2019-05-01T07:00:33.892Z,3.40
2019-05-01T07:03:10.492Z,3.20
2019-05-01T07:05:49.176Z,4.03
2019-05-01T07:08:24.930Z,7.40
2019-05-01T07:10:59.707Z,3.53
2019-05-01T07:13:40.139Z,6.53
2019-05-01T07:16:16.564Z,4.23
2019-05-01T07:18:52.286Z,3.77
2019-05-01T07:21:32.544Z,3.07
2019-05-01T07:24:05.442Z,2.70
2019-05-01T07:26:39.492Z,5.93
2019-05-01T07:29:18.945Z,2.93
2019-05-01T07:31:54.417Z,2.00
2019-05-01T07:34:28.656Z,2.73
2019-05-01T07:37:08.581Z,4.60
2019-05-01T07:39:50.052Z,5.80
2019-05-01T07:42:28.689Z,4.07
2019-05-01T07:45:49.791Z,4.23
2019-05-01T07:48:36.019Z,4.80
2019-05-01T07:51:10.942Z,4.67
2019-05-01T07:53:53.946Z,6.87
2019-05-01T07:57:27.227Z,5.80
2019-05-01T08:00:18.883Z,5.97
2019-05-01T08:02:55.701Z,5.30
2019-05-01T08:06:09.980Z,7.37
2019-05-01T08:09:27.969Z,5.80
2019-05-01T08:12:06.862Z,6.53
2019-05-01T08:14:41.200Z,6.50
2019-05-01T08:17:19.832Z,6.90
2019-05-01T08:24:12.210Z,5.80
2019-05-01T08:26:50.551Z,6.20
2019-05-01T08:33:01.044Z,6.30
2019-05-01T08:39:45.836Z,6.07
2019-05-01T08:43:18.179Z,5.87
2019-05-01T08:46:16.465Z,5.40
2019-05-01T08:48:59.344Z,6.40
2019-05-01T08:51:41.487Z,6.73
2019-05-01T08:54:57.078Z,7.07
2019-05-01T08:58:03.943Z,4.90
2019-05-01T09:00:40.964Z,2.97
2019-05-01T09:03:40.246Z,3.20
2019-05-01T09:06:16.347Z,2.60
2019-05-01T09:08:54.171Z,3.30
2019-05-01T09:11:48.323Z,3.43
2019-05-01T09:15:21.675Z,5.97
2019-05-01T09:18:23.368Z,2.17
2019-05-01T09:21:05.899Z,2.47
2019-05-01T09:23:46.162Z,3.03
2019-05-01T09:30:45.962Z,3.83
2019-05-01T09:33:30.933Z,3.43
2019-05-01T09:36:10.643Z,2.63
2019-05-01T09:38:55.602Z,2.80
2019-05-01T09:41:38.286Z,5.17
2019-05-01T09:44:13.270Z,4.67
2019-05-01T09:46:56.324Z,5.27
2019-05-01T09:49:43.366Z,3.40
2019-05-01T09:52:38.627Z,3.30
2019-05-01T09:55:30.893Z,2.90
2019-05-01T09:58:39.132Z,3.73
2019-05-01T10:01:32.934Z,3.50
2019-05-01T10:04:11.800Z,2.97
2019-05-01T10:06:47.732Z,5.70
2019-05-01T10:09:26.665Z,7.87
2019-05-01T10:12:01.506Z,2.73
2019-05-01T10:14:38.934Z,2.17
2019-05-01T10:17:13.529Z,4.20
2019-05-01T10:19:46.447Z,3.93
2019-05-01T10:22:20.331Z,4.50
2019-05-01T10:24:57.061Z,4.20
2019-05-01T10:27:37.293Z,4.43
2019-05-01T10:30:43.111Z,3.90
2019-05-01T10:33:23.812Z,3.17
2019-05-01T10:36:32.816Z,2.03
2019-05-01T10:39:06.844Z,4.03
2019-05-01T10:42:06.453Z,3.77
2019-05-01T10:44:42.652Z,2.00
2019-05-01T10:47:25.941Z,1.63
2019-05-01T10:50:06.355Z,1.63
2019-05-01T10:52:40.583Z,3.47
2019-05-01T10:55:14.574Z,2.90
2019-05-01T10:57:50.076Z,2.70
2019-05-01T11:00:24.488Z,2.50
2019-05-01T11:03:00.668Z,4.30
2019-05-01T11:05:34.350Z,2.90
2019-05-01T11:08:09.269Z,3.00
2019-05-01T11:10:59.345Z,2.53
2019-05-01T11:13:43.622Z,2.17
2019-05-01T11:17:06.517Z,3.40
2019-05-01T11:20:22.503Z,3.03
2019-05-01T11:22:56.259Z,4.23
2019-05-01T11:25:34.976Z,2.27
2019-05-01T11:35:45.436Z,3.17
2019-05-01T11:38:56.138Z,4.37
2019-05-01T11:45:26.567Z,3.87
2019-05-01T11:48:05.793Z,1.83
2019-05-01T11:51:21.585Z,8.07
2019-05-01T11:58:41.299Z,2.67
2019-05-01T12:01:25.184Z,1.10
2019-05-01T12:05:07.443Z,4.63
2019-05-01T12:11:37.169Z,4.57
2019-05-01T12:14:39.838Z,3.17
2019-05-01T12:17:53.888Z,5.37
2019-05-01T12:20:33.198Z,10.17
2019-05-01T12:23:50.144Z,4.07
2019-05-01T12:26:33.122Z,1.90
2019-05-01T12:29:54.906Z,2.37
2019-05-01T12:32:50.282Z,3.33
2019-05-01T12:36:05.755Z,6.40
2019-05-01T12:38:49.439Z,2.30
2019-05-01T12:42:04.650Z,5.13
2019-05-01T12:44:55.961Z,1.40
2019-05-01T12:47:57.127Z,2.40
2019-05-01T12:50:33.964Z,1.80
2019-05-01T12:53:28.373Z,1.50
2019-05-01T12:56:27.552Z,1.70
2019-05-01T12:59:02.944Z,2.80
2019-05-01T13:01:41.958Z,1.40
2019-05-01T13:04:38.262Z,2.07
2019-05-01T13:07:19.516Z,2.20
2019-05-01T13:09:59.475Z,3.20
2019-05-01T13:12:37.877Z,3.37
2019-05-01T13:15:38.237Z,4.10
2019-05-01T13:18:19.934Z,6.33
2019-05-01T13:20:56.061Z,5.80
2019-05-01T13:23:44.157Z,6.83
2019-05-01T13:26:46.392Z,5.97
2019-05-01T13:29:36.829Z,4.57
2019-05-01T13:32:58.032Z,2.60
2019-05-01T13:35:38.006Z,3.47
2019-05-01T13:38:18.880Z,5.33
2019-05-01T13:40:58.800Z,3.33
2019-05-01T13:43:36.461Z,4.10
2019-05-01T13:46:09.954Z,2.40
2019-05-01T13:48:54.372Z,2.80
2019-05-01T13:51:36.757Z,3.53
2019-05-01T13:54:14.579Z,2.40
2019-05-01T13:56:52.522Z,2.10
2019-05-01T13:59:33.643Z,3.17
2019-05-01T14:02:18.830Z,1.80
2019-05-01T14:04:56.688Z,3.07
2019-05-01T14:07:32.948Z,1.80
2019-05-01T14:10:07.624Z,2.40
2019-05-01T14:12:44.252Z,3.60
2019-05-01T14:15:22.478Z,4.37
2019-05-01T14:17:55.935Z,2.40
2019-05-01T14:20:56.504Z,2.80
2019-05-01T14:24:03.908Z,3.03
2019-05-01T14:26:43.566Z,1.40
2019-05-01T14:29:28.240Z,1.57
2019-05-01T14:32:12.854Z,4.07
2019-05-01T14:34:46.733Z,1.97
2019-05-01T14:37:29.485Z,2.80
2019-05-01T14:39:56.379Z,1.60
2019-05-01T14:42:48.804Z,2.90
2019-05-01T14:45:40.667Z,1.33
2019-05-01T14:48:24.941Z,1.20
2019-05-01T14:51:12.025Z,1.30
2019-05-01T14:53:58.603Z,3.03
2019-05-01T14:56:38.605Z,1.50
2019-05-01T14:59:18.892Z,1.80
2019-05-01T15:02:01.984Z,1.80
2019-05-01T15:04:36.884Z,2.70
2019-05-01T15:07:12.498Z,1.30
2019-05-01T15:10:25.030Z,1.50
2019-05-01T15:14:53.767Z,1.87
2019-05-01T15:20:40.925Z,5.00
2019-05-01T15:23:53.582Z,4.03
2019-05-01T15:27:11.962Z,2.03
2019-05-01T15:29:46.272Z,2.60
2019-05-01T15:32:30.835Z,4.17
2019-05-01T15:35:09.754Z,3.30
2019-05-01T15:38:31.793Z,1.90
2019-05-01T15:41:51.443Z,2.97
2019-05-01T15:44:39.430Z,2.00
2019-05-01T15:47:14.381Z,2.67
2019-05-01T15:50:04.104Z,2.57
2019-05-01T15:52:43.824Z,2.70
2019-05-01T15:55:17.590Z,2.60
2019-05-01T15:58:32.307Z,3.57
2019-05-01T16:01:06.131Z,4.97
2019-05-01T16:03:57.507Z,4.97
2019-05-01T16:06:40.591Z,5.90
2019-05-01T16:09:33.891Z,5.20
2019-05-01T16:12:47.512Z,7.07
2019-05-01T16:15:31.015Z,2.33
2019-05-01T16:18:43.382Z,2.13
2019-05-01T16:21:37.330Z,2.20
2019-05-01T16:24:15.657Z,5.40
2019-05-01T16:26:54.679Z,2.83
2019-05-01T16:29:40.170Z,2.20
2019-05-01T16:32:24.936Z,2.90
2019-05-01T16:35:10.894Z,2.17
2019-05-01T16:38:25.574Z,3.53
2019-05-01T16:41:18.957Z,2.67
2019-05-01T16:43:59.786Z,2.43
2019-05-01T16:46:44.084Z,1.87
2019-05-01T16:49:44.957Z,1.73
2019-05-01T16:52:25.780Z,1.93
2019-05-01T16:55:01.603Z,3.80
2019-05-01T16:57:42.101Z,2.30
2019-05-01T17:00:18.535Z,3.17
2019-05-01T17:03:24.191Z,5.30
2019-05-01T17:09:46.244Z,4.10
2019-05-01T17:12:22.650Z,3.20
2019-05-01T17:15:03.744Z,2.57
2019-05-01T17:17:49.632Z,4.07
2019-05-01T17:20:42.128Z,8.07
2019-05-01T17:23:26.187Z,3.77
2019-05-01T17:26:06.040Z,6.23
2019-05-01T17:28:47.179Z,5.10
2019-05-01T17:31:26.806Z,10.90
2019-05-01T17:34:09.741Z,3.43
2019-05-01T17:36:48.372Z,4.70
2019-05-01T17:39:29.706Z,4.43
2019-05-01T17:46:50.959Z,10.07
2019-05-01T17:49:58.417Z,11.27
2019-05-01T17:52:44.202Z,6.23
2019-05-01T17:55:18.612Z,2.60
2019-05-01T17:58:06.087Z,3.13
2019-05-01T18:04:17.540Z,11.30
2019-05-01T18:06:57.379Z,9.73
2019-05-01T18:09:42.250Z,11.03
2019-05-01T18:12:23.497Z,9.20
2019-05-01T18:15:31.548Z,9.77
2019-05-01T18:18:14.964Z,9.33
2019-05-01T18:25:33.271Z,9.53
2019-05-01T18:28:30.034Z,7.23
2019-05-01T18:31:05.534Z,7.40
2019-05-01T18:33:46.578Z,7.00
2019-05-01T18:36:24.678Z,10.33
2019-05-01T18:40:00.692Z,9.23
2019-05-01T18:42:51.214Z,22.93
2019-05-01T18:45:59.150Z,8.80
2019-05-01T18:48:53.492Z,10.73
2019-05-01T18:51:27.924Z,10.33
2019-05-01T18:54:12.113Z,10.93
2019-05-01T18:57:23.109Z,14.23
2019-05-01T19:00:20.088Z,13.27
2019-05-01T19:03:05.713Z,12.73
2019-05-01T19:06:13.391Z,10.73
2019-05-01T19:08:54.549Z,12.80
2019-05-01T19:11:29.861Z,12.70
2019-05-01T19:14:08.362Z,10.37
2019-05-01T19:16:59.102Z,14.67
2019-05-01T19:20:05.074Z,13.43
2019-05-01T19:22:51.091Z,13.73
2019-05-01T19:25:25.111Z,16.70
2019-05-01T19:27:59.219Z,12.93
2019-05-01T19:30:34.223Z,18.53
2019-05-01T19:33:12.148Z,13.80
2019-05-01T19:36:22.140Z,13.30
2019-05-01T19:38:59.094Z,10.27
2019-05-01T19:45:18.045Z,6.87
2019-05-01T19:48:02.305Z,7.53
2019-05-01T19:51:10.399Z,8.60
2019-05-01T19:53:53.483Z,9.03
2019-05-01T19:57:00.919Z,16.77
2019-05-01T19:59:54.116Z,6.63
2019-05-01T20:03:07.071Z,7.50
2019-05-01T20:05:53.270Z,9.33
2019-05-01T20:08:54.891Z,8.87
2019-05-01T20:11:31.910Z,7.63
2019-05-01T20:14:55.591Z,8.37
2019-05-01T20:17:32.939Z,10.63
2019-05-01T20:20:08.550Z,9.47
2019-05-01T20:22:48.146Z,8.20
2019-05-01T20:25:21.602Z,14.77
2019-05-01T20:28:03.432Z,8.23
2019-05-01T20:30:39.964Z,8.73
2019-05-01T20:33:18.922Z,7.80
2019-05-01T20:35:52.907Z,8.83
2019-05-01T20:38:43.415Z,12.40
2019-05-01T20:41:27.638Z,11.20
2019-05-01T20:44:01.999Z,9.20
2019-05-01T20:46:37.553Z,7.33
2019-05-01T20:49:14.420Z,8.17
2019-05-01T20:51:56.473Z,8.33
2019-05-01T20:54:33.344Z,7.17
2019-05-01T20:57:25.202Z,10.73
2019-05-01T20:59:59.421Z,8.43
2019-05-01T21:02:32.940Z,8.33
2019-05-01T21:05:37.520Z,13.13
2019-05-01T21:08:39.321Z,11.07
2019-05-01T21:11:20.246Z,10.50
2019-05-01T21:14:16.886Z,10.67
2019-05-01T21:16:45.846Z,8.20
2019-05-01T21:19:23.361Z,7.93
2019-05-01T21:22:04.061Z,13.27
2019-05-01T21:24:41.006Z,12.63
2019-05-01T21:27:15.227Z,7.17
2019-05-01T21:29:49.239Z,7.73
2019-05-01T21:32:28.735Z,7.70
2019-05-01T21:35:01.671Z,9.03
2019-05-01T21:37:40.521Z,4.77
2019-05-01T21:40:14.340Z,5.30
2019-05-01T21:42:54.364Z,5.77
2019-05-01T21:45:23.890Z,5.60
2019-05-01T21:47:58.752Z,5.93
2019-05-01T21:50:39.295Z,7.13
2019-05-01T21:53:16.343Z,6.00
2019-05-01T21:55:50.468Z,5.17
2019-05-01T21:58:31.833Z,5.90
2019-05-01T22:01:06.895Z,6.50
2019-05-01T22:03:41.661Z,6.87
2019-05-01T22:06:22.859Z,6.53
2019-05-01T22:09:03.195Z,9.77
2019-05-01T22:11:43.377Z,6.57
2019-05-01T22:14:48.397Z,7.83
2019-05-01T22:17:51.786Z,4.53
2019-05-01T22:20:39.551Z,3.90
2019-05-01T22:23:22.062Z,5.93
2019-05-01T22:25:57.855Z,4.20
2019-05-01T22:28:54.940Z,4.17
2019-05-01T22:31:43.070Z,4.00
2019-05-01T22:34:47.955Z,4.10
2019-05-01T22:37:23.610Z,6.17
2019-05-01T22:40:07.031Z,6.17
2019-05-01T22:42:40.416Z,3.33
2019-05-01T22:45:20.461Z,4.23
2019-05-01T22:47:54.614Z,3.53
2019-05-01T22:50:28.802Z,3.13
2019-05-01T22:53:07.839Z,3.50
2019-05-01T22:55:43.335Z,2.97
2019-05-01T22:58:34.500Z,3.90
2019-05-01T23:01:07.905Z,3.03
2019-05-01T23:06:54.274Z,4.63
2019-05-01T23:09:30.729Z,3.57
2019-05-01T23:12:05.342Z,4.30
2019-05-01T23:14:38.818Z,2.60
2019-05-01T23:17:27.441Z,2.60
2019-05-01T23:20:07.503Z,3.73
2019-05-01T23:22:42.344Z,2.37
2019-05-01T23:25:19.439Z,3.03
2019-05-01T23:27:53.087Z,3.23
2019-05-01T23:30:31.544Z,2.40
2019-05-01T23:33:05.041Z,3.10
2019-05-01T23:35:39.040Z,3.30
2019-05-01T23:38:16.210Z,2.63
2019-05-01T23:40:52.893Z,2.60
2019-05-01T23:43:27.767Z,2.63
2019-05-01T23:46:06.939Z,2.57
2019-05-01T23:48:40.158Z,2.10
2019-05-01T23:51:17.414Z,2.30
2019-05-01T23:53:52.673Z,2.60
2019-05-01T23:56:30.961Z,2.67
2019-05-01T23:59:04.278Z,2.20
